sim
Sign-in with your pilot id or email,
or register
Callsign
Passwort

Schedule Details

Flight Number: OEF9066
Departure: New York John F. Kennedy International Airport (KJFK) at 05:20
Arrival: Munich Airport (EDDM) at 12:20

Weather Information
Getting current METAR information for KJFK 240051Z 24004KT 10SM CLR 19/12 A2990 RMK AO2 SLP125 T01890122 $
Getting current METAR information for EDDM 240050Z VRB02KT CAVOK 12/11 Q1009 NOSIG

Schedule Frequency

Route Map